createdAt,value
2018-04-24T00:00:54.196Z,90.98
2018-04-24T00:01:54.755Z,91.55
2018-04-24T00:02:55.313Z,90.89
2018-04-24T00:03:55.853Z,90.98
2018-04-24T00:04:56.397Z,91.65
2018-04-24T00:05:56.949Z,91.36
2018-04-24T00:06:57.483Z,91.65
2018-04-24T00:07:58.034Z,91.65
2018-04-24T00:08:58.581Z,91.94
2018-04-24T00:09:59.123Z,92.60
2018-04-24T00:10:59.671Z,92.79
2018-04-24T00:12:00.219Z,92.41
2018-04-24T00:13:00.772Z,92.89
2018-04-24T00:14:01.335Z,92.94
2018-04-24T00:15:01.868Z,92.94
2018-04-24T00:16:02.414Z,92.84
2018-04-24T00:17:02.958Z,93.51
2018-04-24T00:18:03.504Z,93.79
2018-04-24T00:19:04.052Z,93.70
2018-04-24T00:20:04.603Z,94.27
2018-04-24T00:21:05.152Z,94.27
2018-04-24T00:22:05.703Z,94.37
2018-04-24T00:23:06.243Z,94.27
2018-04-24T00:24:06.801Z,93.79
2018-04-24T00:25:07.341Z,94.17
2018-04-24T00:26:07.939Z,94.56
2018-04-24T00:27:08.433Z,94.17
2018-04-24T00:28:08.977Z,94.65
2018-04-24T00:29:09.523Z,95.32
2018-04-24T00:30:10.072Z,95.22
2018-04-24T00:31:10.619Z,95.12
2018-04-24T00:32:11.169Z,95.51
2018-04-24T00:33:11.720Z,95.70
2018-04-24T00:34:12.265Z,96.08
2018-04-24T00:35:12.811Z,95.98
2018-04-24T00:36:13.358Z,96.08
2018-04-24T00:37:13.907Z,96.55
2018-04-24T00:38:14.455Z,96.55
2018-04-24T00:39:15.000Z,96.75
2018-04-24T00:40:15.547Z,96.55
2018-04-24T00:41:16.089Z,96.31
2018-04-24T00:42:16.632Z,96.79
2018-04-24T00:43:17.181Z,96.70
2018-04-24T00:44:17.722Z,96.51
2018-04-24T00:45:18.271Z,97.08
2018-04-24T00:46:18.811Z,97.17
2018-04-24T00:47:19.354Z,96.98
2018-04-24T00:48:19.895Z,96.70
2018-04-24T00:49:20.444Z,96.89
2018-04-24T00:50:20.986Z,96.46
2018-04-24T00:51:21.529Z,96.03
2018-04-24T00:52:22.077Z,95.94
2018-04-24T00:53:22.623Z,96.03
2018-04-24T00:54:23.163Z,96.31
2018-04-24T00:55:23.706Z,96.22
2018-04-24T00:56:24.246Z,96.51
2018-04-24T00:57:24.790Z,96.22
2018-04-24T00:58:25.339Z,96.12
2018-04-24T00:59:25.886Z,96.03
2018-04-24T01:00:26.436Z,96.98
2018-04-24T01:01:26.983Z,97.55
2018-04-24T01:02:27.533Z,97.08
2018-04-24T01:03:28.081Z,97.08
2018-04-24T01:04:28.626Z,97.36
2018-04-24T01:05:29.170Z,97.27
2018-04-24T01:06:29.716Z,97.46
2018-04-24T01:07:30.264Z,97.55
2018-04-24T01:08:30.810Z,97.27
2018-04-24T01:09:31.357Z,97.08
2018-04-24T01:10:31.903Z,96.98
2018-04-24T01:11:32.449Z,97.36
2018-04-24T01:12:32.994Z,97.65
2018-04-24T01:13:33.539Z,97.46
2018-04-24T01:14:34.083Z,97.65
2018-04-24T01:15:34.627Z,97.84
2018-04-24T01:16:35.174Z,98.22
2018-04-24T01:17:35.714Z,98.41
2018-04-24T01:18:36.263Z,98.60
2018-04-24T01:19:36.811Z,98.69
2018-04-24T01:20:37.350Z,98.60
2018-04-24T01:21:37.896Z,98.88
2018-04-24T01:22:38.509Z,99.74
2018-04-24T01:23:38.981Z,99.08
2018-04-24T01:24:39.523Z,99.17
2018-04-24T01:25:40.069Z,99.27
2018-04-24T01:26:40.616Z,99.27
2018-04-24T01:27:41.164Z,99.08
2018-04-24T01:28:41.714Z,99.08
2018-04-24T01:29:42.254Z,99.46
2018-04-24T01:30:42.800Z,99.74
2018-04-24T01:31:43.349Z,99.55
2018-04-24T01:32:43.895Z,99.46
2018-04-24T01:33:44.437Z,99.08
2018-04-24T01:34:44.985Z,99.27
2018-04-24T01:35:45.537Z,99.65
2018-04-24T01:36:46.088Z,99.55
2018-04-24T01:37:46.633Z,99.27
2018-04-24T01:38:47.177Z,99.46
2018-04-24T01:39:47.724Z,99.74
2018-04-24T01:40:48.282Z,99.65
2018-04-24T01:41:48.828Z,99.65
2018-04-24T01:42:49.374Z,99.99
2018-04-24T01:43:49.916Z,99.65
2018-04-24T01:44:50.463Z,99.46
2018-04-24T01:45:51.013Z,99.74
2018-04-24T01:46:51.558Z,99.27
2018-04-24T01:47:52.107Z,98.88
2018-04-24T01:48:52.645Z,99.27
2018-04-24T01:49:53.196Z,99.36
2018-04-24T01:50:53.748Z,99.65
2018-04-24T01:51:54.293Z,99.65
2018-04-24T01:52:54.837Z,99.55
2018-04-24T01:53:55.384Z,99.84
2018-04-24T01:54:55.931Z,99.84
2018-04-24T01:55:56.474Z,99.93
2018-04-24T01:56:57.023Z,99.99
2018-04-24T01:57:57.569Z,99.99
2018-04-24T01:58:58.117Z,99.99
2018-04-24T01:59:58.666Z,99.93
2018-04-24T02:00:59.211Z,99.99
2018-04-24T02:01:59.755Z,99.99
2018-04-24T02:03:00.303Z,99.99
2018-04-24T02:04:00.850Z,99.99
2018-04-24T02:05:01.391Z,99.99
2018-04-24T02:06:01.928Z,99.99
2018-04-24T02:07:02.475Z,99.99
2018-04-24T02:08:03.018Z,99.99
2018-04-24T02:09:03.560Z,99.99
2018-04-24T02:10:04.099Z,99.99
2018-04-24T02:11:04.649Z,99.99
2018-04-24T02:12:05.197Z,99.99
2018-04-24T02:13:05.743Z,99.99
2018-04-24T02:14:06.284Z,99.99
2018-04-24T02:15:06.833Z,99.99
2018-04-24T02:16:07.376Z,99.99
2018-04-24T02:17:07.922Z,99.99
2018-04-24T02:18:08.462Z,99.99
2018-04-24T02:19:09.017Z,99.99
2018-04-24T02:20:09.558Z,99.99
2018-04-24T02:21:10.101Z,99.99
2018-04-24T02:22:10.650Z,99.99
2018-04-24T02:23:11.197Z,99.99
2018-04-24T02:24:11.748Z,99.99
2018-04-24T02:25:12.296Z,99.99
2018-04-24T02:26:12.845Z,99.99
2018-04-24T02:27:13.393Z,99.99
2018-04-24T02:28:13.937Z,99.99
2018-04-24T02:29:14.481Z,99.99
2018-04-24T02:30:15.029Z,99.99
2018-04-24T02:31:15.574Z,99.99
2018-04-24T02:32:16.120Z,99.99
2018-04-24T02:33:16.665Z,99.99
2018-04-24T02:34:17.203Z,99.99
2018-04-24T02:35:17.746Z,99.99
2018-04-24T02:36:18.289Z,99.99
2018-04-24T02:37:18.835Z,99.99
2018-04-24T02:38:19.376Z,99.99
2018-04-24T02:39:19.929Z,99.99
2018-04-24T02:40:20.582Z,99.99
2018-04-24T02:41:21.016Z,99.99
2018-04-24T02:42:21.555Z,99.99
2018-04-24T02:43:22.096Z,99.99
2018-04-24T02:44:22.644Z,99.99
2018-04-24T02:45:23.197Z,99.99
2018-04-24T02:46:23.736Z,99.99
2018-04-24T02:47:24.282Z,99.99
2018-04-24T02:48:24.828Z,99.99
2018-04-24T02:49:25.402Z,99.99
2018-04-24T02:50:25.909Z,99.99
2018-04-24T02:51:26.458Z,99.99
2018-04-24T02:52:26.997Z,99.99
2018-04-24T02:53:27.542Z,99.99
2018-04-24T02:54:28.088Z,99.99
2018-04-24T02:55:28.633Z,99.99
2018-04-24T02:56:29.183Z,99.99
2018-04-24T02:57:29.730Z,99.99
2018-04-24T02:58:30.267Z,99.99
2018-04-24T02:59:30.814Z,99.99
2018-04-24T03:00:31.357Z,99.99
2018-04-24T03:01:31.902Z,99.99
2018-04-24T03:02:32.453Z,99.99
2018-04-24T03:03:32.993Z,99.99
2018-04-24T03:04:33.534Z,99.99
2018-04-24T03:05:34.083Z,99.99
2018-04-24T03:06:34.632Z,99.99
2018-04-24T03:07:35.174Z,99.99
2018-04-24T03:08:35.719Z,99.99
2018-04-24T03:09:36.263Z,99.99
2018-04-24T03:10:36.809Z,99.99
2018-04-24T03:11:37.357Z,99.99
2018-04-24T03:12:37.904Z,99.99
2018-04-24T03:13:38.444Z,99.99
2018-04-24T03:14:38.991Z,99.99
2018-04-24T03:15:39.529Z,99.99
2018-04-24T03:16:40.074Z,99.99
2018-04-24T03:17:40.619Z,99.99
2018-04-24T03:18:41.169Z,99.99
2018-04-24T03:19:41.720Z,99.99
2018-04-24T03:20:42.261Z,99.99
2018-04-24T03:21:42.812Z,99.99
2018-04-24T03:22:43.355Z,99.99
2018-04-24T03:23:43.899Z,99.99
2018-04-24T03:24:44.441Z,99.99
2018-04-24T03:25:44.982Z,99.99
2018-04-24T03:26:45.520Z,99.99
2018-04-24T03:27:46.066Z,99.99
2018-04-24T03:28:46.611Z,99.99
2018-04-24T03:29:47.164Z,99.99
2018-04-24T03:30:47.704Z,99.99
2018-04-24T03:31:48.241Z,99.99
2018-04-24T03:32:48.836Z,99.99
2018-04-24T03:33:49.381Z,99.99
2018-04-24T03:34:49.929Z,99.99
2018-04-24T03:35:50.477Z,99.99
2018-04-24T03:36:51.024Z,99.99
2018-04-24T03:37:51.578Z,99.99
2018-04-24T03:38:52.131Z,99.99
2018-04-24T03:39:52.670Z,99.99
2018-04-24T03:40:53.211Z,99.99
2018-04-24T03:41:53.768Z,99.99
2018-04-24T03:42:54.319Z,99.99
2018-04-24T03:43:54.874Z,99.99
2018-04-24T03:44:55.417Z,99.99
2018-04-24T03:45:55.961Z,99.99
2018-04-24T03:46:56.500Z,99.99
2018-04-24T03:47:57.047Z,99.99
2018-04-24T03:48:57.586Z,99.99
2018-04-24T03:49:58.129Z,99.99
2018-04-24T03:50:58.671Z,99.99
2018-04-24T03:51:59.214Z,99.99
2018-04-24T03:52:59.761Z,99.99
2018-04-24T03:54:00.310Z,99.99
2018-04-24T03:55:00.851Z,99.99
2018-04-24T03:56:01.393Z,99.99
2018-04-24T03:57:01.940Z,99.99
2018-04-24T03:58:02.490Z,99.99
2018-04-24T03:59:03.036Z,99.99
2018-04-24T04:00:03.585Z,99.99
2018-04-24T04:01:04.127Z,99.99
2018-04-24T04:02:04.673Z,99.99
2018-04-24T04:03:05.221Z,99.99
2018-04-24T04:04:05.771Z,99.99
2018-04-24T04:05:06.315Z,99.99
2018-04-24T04:06:06.863Z,99.99
2018-04-24T04:07:07.410Z,99.99
2018-04-24T04:08:07.951Z,99.99
2018-04-24T04:09:08.500Z,99.99
2018-04-24T04:10:09.045Z,99.99
2018-04-24T04:11:09.590Z,99.99
2018-04-24T04:12:10.130Z,99.99
2018-04-24T04:13:10.681Z,99.99
2018-04-24T04:14:11.233Z,99.99
2018-04-24T04:15:11.787Z,99.99
2018-04-24T04:16:12.383Z,99.99
2018-04-24T04:17:12.878Z,99.99
2018-04-24T04:18:13.430Z,99.99
2018-04-24T04:19:13.982Z,99.99
2018-04-24T04:20:14.521Z,99.99
2018-04-24T04:21:15.069Z,99.99
2018-04-24T04:22:15.624Z,99.99
2018-04-24T04:23:16.166Z,99.99
2018-04-24T04:24:16.709Z,99.99
2018-04-24T04:25:17.258Z,99.99
2018-04-24T04:26:17.814Z,99.99
2018-04-24T04:27:18.359Z,99.99
2018-04-24T04:28:18.911Z,99.99
2018-04-24T04:29:19.460Z,99.99
2018-04-24T04:30:20.007Z,99.99
2018-04-24T04:31:20.549Z,99.99
2018-04-24T04:32:21.104Z,99.99
2018-04-24T04:33:21.641Z,99.99
2018-04-24T04:34:22.189Z,99.99
2018-04-24T04:35:22.732Z,99.99
2018-04-24T04:36:23.278Z,99.99
2018-04-24T04:37:23.831Z,99.99
2018-04-24T04:38:24.375Z,99.99
2018-04-24T04:39:24.943Z,99.99
2018-04-24T04:40:25.476Z,99.99
2018-04-24T04:41:26.025Z,99.99
2018-04-24T04:42:26.568Z,99.99
2018-04-24T04:43:27.114Z,99.99
2018-04-24T04:44:27.667Z,99.99
2018-04-24T04:45:28.218Z,99.99
2018-04-24T04:46:28.765Z,99.99
2018-04-24T04:47:29.313Z,99.99
2018-04-24T04:48:29.865Z,99.99
2018-04-24T04:49:30.415Z,99.99
2018-04-24T04:50:30.963Z,99.99
2018-04-24T04:51:31.512Z,99.99
2018-04-24T04:52:32.053Z,99.99
2018-04-24T04:53:32.606Z,99.99
2018-04-24T04:54:33.145Z,99.99
2018-04-24T04:55:33.694Z,99.99
2018-04-24T04:56:34.244Z,99.99
2018-04-24T04:57:34.789Z,99.99
2018-04-24T04:58:35.333Z,99.99
2018-04-24T04:59:35.880Z,99.99
2018-04-24T05:00:36.426Z,99.99
2018-04-24T05:01:36.991Z,99.99
2018-04-24T05:02:37.532Z,99.99
2018-04-24T05:03:38.085Z,99.99
2018-04-24T05:04:38.660Z,99.99
2018-04-24T05:05:39.182Z,99.99
2018-04-24T05:06:39.734Z,99.99
2018-04-24T05:07:40.288Z,99.99
2018-04-24T05:08:40.844Z,99.99
2018-04-24T05:09:41.398Z,99.99
2018-04-24T05:10:41.941Z,99.99
2018-04-24T05:11:42.496Z,99.99
2018-04-24T05:12:43.041Z,99.99
2018-04-24T05:13:43.595Z,99.99
2018-04-24T05:14:44.138Z,99.99
2018-04-24T05:15:44.687Z,99.99
2018-04-24T05:16:45.239Z,99.99
2018-04-24T05:17:45.795Z,99.99
2018-04-24T05:18:46.346Z,99.99
2018-04-24T05:19:46.901Z,99.99
2018-04-24T05:20:47.455Z,99.99
2018-04-24T05:21:48.009Z,99.99
2018-04-24T05:22:48.563Z,99.99
2018-04-24T05:23:49.117Z,99.99
2018-04-24T05:24:49.673Z,99.99
2018-04-24T05:25:50.226Z,99.99
2018-04-24T05:26:50.781Z,99.99
2018-04-24T05:27:51.333Z,99.99
2018-04-24T05:28:51.893Z,99.99
2018-04-24T05:29:52.438Z,99.99
2018-04-24T05:30:52.987Z,99.99
2018-04-24T05:31:53.546Z,99.99
2018-04-24T05:32:54.102Z,99.79
2018-04-24T05:33:54.653Z,99.98
2018-04-24T05:34:55.205Z,99.99
2018-04-24T05:35:55.768Z,99.32
2018-04-24T05:36:56.315Z,98.65
2018-04-24T05:37:56.871Z,98.27
2018-04-24T05:38:57.422Z,98.27
2018-04-24T05:39:57.978Z,97.70
2018-04-24T05:40:58.528Z,97.51
2018-04-24T05:41:59.077Z,97.89
2018-04-24T05:42:59.625Z,97.27
2018-04-24T05:44:00.173Z,97.08
2018-04-24T05:45:00.724Z,97.08
2018-04-24T05:46:01.283Z,97.36
2018-04-24T05:47:01.831Z,96.70
2018-04-24T05:48:02.386Z,96.12
2018-04-24T05:49:02.942Z,96.22
2018-04-24T05:50:03.505Z,96.41
2018-04-24T05:51:04.050Z,96.32
2018-04-24T05:52:04.600Z,96.12
2018-04-24T05:53:05.240Z,96.22
2018-04-24T05:54:05.706Z,96.03
2018-04-24T05:55:06.265Z,96.03
2018-04-24T05:56:06.818Z,96.80
2018-04-24T05:57:07.378Z,96.60
2018-04-24T05:58:07.924Z,95.56
2018-04-24T05:59:08.473Z,96.41
2018-04-24T06:00:09.030Z,95.84
2018-04-24T06:01:09.583Z,95.08
2018-04-24T06:02:10.147Z,95.08
2018-04-24T06:03:10.722Z,95.08
2018-04-24T06:04:11.269Z,95.27
2018-04-24T06:05:11.815Z,95.12
2018-04-24T06:06:12.383Z,94.56
2018-04-24T06:07:12.934Z,94.56
2018-04-24T06:08:13.492Z,94.65
2018-04-24T06:09:14.054Z,93.79
2018-04-24T06:10:14.659Z,93.70
2018-04-24T06:11:15.217Z,93.60
2018-04-24T06:12:15.774Z,93.03
2018-04-24T06:13:16.332Z,93.17
2018-04-24T06:14:16.888Z,92.69
2018-04-24T06:15:17.449Z,92.22
2018-04-24T06:16:18.005Z,91.64
2018-04-24T06:17:18.562Z,91.36
2018-04-24T06:18:19.116Z,90.98
2018-04-24T06:19:19.671Z,90.83
2018-04-24T06:20:20.228Z,89.78
2018-04-24T06:21:20.786Z,89.07
2018-04-24T06:22:21.341Z,89.64
2018-04-24T06:23:21.895Z,89.88
2018-04-24T06:24:22.446Z,89.07
2018-04-24T06:25:23.018Z,89.02
2018-04-24T06:26:23.561Z,89.17
2018-04-24T06:27:24.115Z,89.97
2018-04-24T06:28:24.692Z,89.97
2018-04-24T06:29:25.225Z,89.12
2018-04-24T06:30:25.783Z,89.26
2018-04-24T06:31:26.336Z,89.17
2018-04-24T06:32:26.890Z,88.98
2018-04-24T06:33:27.447Z,89.17
2018-04-24T06:34:28.004Z,88.88
2018-04-24T06:35:28.560Z,89.07
2018-04-24T06:36:29.114Z,89.64
2018-04-24T06:37:29.666Z,89.45
2018-04-24T06:38:30.218Z,89.93
2018-04-24T06:39:30.777Z,90.41
2018-04-24T06:40:31.329Z,90.12
2018-04-24T06:41:31.892Z,90.31
2018-04-24T06:42:32.446Z,89.54
2018-04-24T06:43:32.999Z,89.54
2018-04-24T06:44:33.553Z,89.88
2018-04-24T06:45:34.113Z,89.17
2018-04-24T06:46:34.664Z,89.31
2018-04-24T06:47:35.219Z,89.21
2018-04-24T06:48:35.778Z,89.31
2018-04-24T06:49:36.337Z,88.54
2018-04-24T06:50:36.885Z,87.78
2018-04-24T06:51:37.445Z,88.16
2018-04-24T06:52:37.998Z,87.78
2018-04-24T06:53:38.551Z,87.11
2018-04-24T06:54:39.103Z,87.40
2018-04-24T06:55:39.659Z,86.92
2018-04-24T06:56:40.220Z,86.30
2018-04-24T06:57:40.795Z,86.49
2018-04-24T06:58:41.340Z,85.63
2018-04-24T06:59:41.901Z,85.25
2018-04-24T07:00:42.478Z,85.38
2018-04-24T07:01:43.021Z,84.62
2018-04-24T07:02:43.576Z,83.95
2018-04-24T07:03:44.137Z,84.37
2018-04-24T07:04:44.697Z,83.28
2018-04-24T07:05:45.258Z,82.94
2018-04-24T07:06:45.819Z,82.60
2018-04-24T07:07:46.382Z,81.74
2018-04-24T07:08:46.939Z,81.07
2018-04-24T07:09:47.502Z,79.98
2018-04-24T07:10:48.063Z,81.36
2018-04-24T07:11:48.625Z,81.65
2018-04-24T07:12:49.183Z,81.16
2018-04-24T07:13:49.744Z,80.11
2018-04-24T07:14:50.304Z,80.27
2018-04-24T07:15:50.856Z,80.27
2018-04-24T07:16:51.429Z,81.22
2018-04-24T07:17:51.969Z,80.93
2018-04-24T07:18:52.530Z,80.93
2018-04-24T07:19:53.087Z,80.93
2018-04-24T07:20:53.648Z,81.41
2018-04-24T07:21:54.209Z,82.18
2018-04-24T07:22:54.766Z,82.37
2018-04-24T07:23:55.327Z,82.28
2018-04-24T07:24:55.887Z,81.79
2018-04-24T07:25:56.440Z,80.98
2018-04-24T07:26:57.000Z,81.07
2018-04-24T07:27:57.562Z,81.26
2018-04-24T07:28:58.123Z,80.40
2018-04-24T07:29:58.696Z,80.59
2018-04-24T07:30:59.260Z,80.50
2018-04-24T07:31:59.821Z,81.11
2018-04-24T07:33:00.461Z,80.63
2018-04-24T07:34:00.937Z,79.64
2018-04-24T07:35:01.492Z,79.06
2018-04-24T07:36:02.057Z,79.73
2018-04-24T07:37:02.617Z,79.64
2018-04-24T07:38:03.209Z,79.54
2018-04-24T07:39:03.742Z,79.58
2018-04-24T07:40:04.297Z,79.29
2018-04-24T07:41:04.945Z,79.06
2018-04-24T07:42:05.413Z,79.54
2018-04-24T07:43:05.970Z,79.58
2018-04-24T07:44:06.527Z,79.77
2018-04-24T07:45:07.095Z,79.77
2018-04-24T07:46:07.650Z,79.00
2018-04-24T07:47:08.211Z,79.06
2018-04-24T07:48:08.773Z,79.25
2018-04-24T07:49:09.329Z,80.11
2018-04-24T07:50:09.938Z,79.93
2018-04-24T07:51:10.498Z,80.30
2018-04-24T07:52:11.058Z,80.98
2018-04-24T07:53:11.617Z,80.59
2018-04-24T07:54:12.179Z,80.40
2018-04-24T07:55:12.735Z,80.88
2018-04-24T07:56:13.297Z,81.13
2018-04-24T07:57:13.853Z,80.84
2018-04-24T07:58:14.469Z,81.16
2018-04-24T07:59:15.052Z,81.93
2018-04-24T08:00:15.544Z,81.70
2018-04-24T08:01:16.106Z,81.79
2018-04-24T08:02:16.667Z,81.79
2018-04-24T08:03:17.220Z,82.18
2018-04-24T08:04:17.780Z,82.08
2018-04-24T08:05:18.341Z,82.94
2018-04-24T08:06:18.920Z,84.28
2018-04-24T08:07:19.680Z,83.76
2018-04-24T08:08:20.243Z,83.70
2018-04-24T08:09:20.793Z,83.86
2018-04-24T08:10:21.370Z,84.37
2018-04-24T08:11:21.916Z,83.95
2018-04-24T08:12:22.477Z,84.72
2018-04-24T08:13:23.037Z,84.62
2018-04-24T08:14:23.592Z,84.43
2018-04-24T08:15:24.150Z,84.62
2018-04-24T08:16:24.707Z,84.23
2018-04-24T08:17:25.273Z,84.37
2018-04-24T08:18:25.835Z,84.81
2018-04-24T08:19:26.395Z,84.81
2018-04-24T08:20:26.954Z,84.81
2018-04-24T08:21:27.513Z,85.10
2018-04-24T08:22:28.067Z,85.29
2018-04-24T08:23:28.629Z,85.77
2018-04-24T08:24:29.177Z,86.43
2018-04-24T08:25:29.732Z,85.96
2018-04-24T08:26:30.286Z,86.24
2018-04-24T08:27:30.852Z,86.24
2018-04-24T08:28:31.419Z,86.82
2018-04-24T08:29:31.973Z,86.63
2018-04-24T08:30:32.529Z,85.96
2018-04-24T08:31:33.088Z,86.53
2018-04-24T08:32:33.647Z,86.24
2018-04-24T08:33:34.264Z,85.77
2018-04-24T08:34:34.761Z,86.05
2018-04-24T08:35:35.317Z,85.86
2018-04-24T08:36:35.878Z,85.86
2018-04-24T08:37:36.434Z,86.53
2018-04-24T08:38:37.002Z,87.01
2018-04-24T08:39:37.562Z,87.77
2018-04-24T08:40:38.129Z,87.68
2018-04-24T08:41:38.680Z,87.10
2018-04-24T08:42:39.231Z,87.87
2018-04-24T08:43:39.797Z,87.62
2018-04-24T08:44:40.350Z,86.43
2018-04-24T08:45:40.911Z,86.67
2018-04-24T08:46:41.477Z,86.82
2018-04-24T08:47:42.035Z,86.91
2018-04-24T08:48:42.600Z,86.63
2018-04-24T08:49:43.155Z,86.72
2018-04-24T08:50:43.717Z,87.24
2018-04-24T08:51:44.283Z,87.43
2018-04-24T08:52:44.845Z,86.86
2018-04-24T08:53:45.408Z,87.34
2018-04-24T08:54:45.963Z,86.86
2018-04-24T08:55:46.524Z,86.76
2018-04-24T08:56:47.087Z,85.90
2018-04-24T08:57:47.639Z,85.33
2018-04-24T08:58:48.199Z,85.62
2018-04-24T08:59:48.758Z,85.42
2018-04-24T09:00:49.317Z,85.47
2018-04-24T09:01:49.877Z,85.38
2018-04-24T09:02:50.444Z,85.33
2018-04-24T09:03:51.005Z,85.85
2018-04-24T09:04:51.768Z,85.94
2018-04-24T09:05:52.348Z,85.28
2018-04-24T09:06:52.896Z,84.80
2018-04-24T09:07:53.456Z,84.99
2018-04-24T09:08:54.022Z,85.66
2018-04-24T09:09:54.701Z,85.94
2018-04-24T09:10:55.254Z,85.38
2018-04-24T09:11:55.807Z,84.89
2018-04-24T09:12:56.369Z,85.85
2018-04-24T09:13:56.936Z,84.84
2018-04-24T09:14:57.517Z,84.46
2018-04-24T09:15:58.071Z,84.61
2018-04-24T09:16:58.643Z,85.22
2018-04-24T09:17:59.214Z,84.70
2018-04-24T09:18:59.774Z,84.65
2018-04-24T09:20:00.353Z,84.36
2018-04-24T09:21:00.912Z,84.46
2018-04-24T09:22:01.480Z,83.94
2018-04-24T09:23:02.052Z,84.27
2018-04-24T09:24:02.634Z,84.08
2018-04-24T09:25:03.203Z,83.40
2018-04-24T09:26:03.760Z,83.12
2018-04-24T09:27:04.383Z,83.22
2018-04-24T09:28:04.895Z,82.93
2018-04-24T09:29:05.452Z,82.98
2018-04-24T09:30:06.022Z,83.94
2018-04-24T09:31:06.587Z,84.17
2018-04-24T09:32:07.160Z,84.55
2018-04-24T09:33:07.735Z,83.98
2018-04-24T09:34:08.309Z,84.27
2018-04-24T09:35:08.883Z,84.75
2018-04-24T09:36:09.454Z,84.08
2018-04-24T09:37:10.007Z,84.55
2018-04-24T09:38:10.640Z,84.75
2018-04-24T09:39:11.128Z,84.17
2018-04-24T09:40:11.694Z,83.60
2018-04-24T09:41:12.259Z,84.17
2018-04-24T09:42:12.829Z,84.17
2018-04-24T09:43:13.400Z,84.55
2018-04-24T09:44:13.951Z,84.08
2018-04-24T09:45:14.515Z,83.98
2018-04-24T09:46:15.073Z,83.69
2018-04-24T09:47:15.628Z,83.45
2018-04-24T09:48:16.241Z,82.93
2018-04-24T09:49:16.789Z,83.89
2018-04-24T09:50:17.357Z,83.73
2018-04-24T09:51:17.968Z,83.16
2018-04-24T09:52:18.481Z,81.73
2018-04-24T09:53:19.031Z,81.82
2018-04-24T09:54:19.598Z,81.92
2018-04-24T09:55:20.157Z,82.40
2018-04-24T09:56:20.719Z,82.11
2018-04-24T09:57:21.282Z,82.68
2018-04-24T09:58:21.842Z,82.20
2018-04-24T09:59:22.405Z,82.40
2018-04-24T10:00:22.969Z,82.11
2018-04-24T10:01:23.532Z,82.11
2018-04-24T10:02:24.102Z,82.49
2018-04-24T10:03:24.676Z,82.30
2018-04-24T10:04:25.253Z,83.26
2018-04-24T10:05:25.798Z,82.87
2018-04-24T10:06:26.372Z,82.15
2018-04-24T10:07:26.933Z,81.82
2018-04-24T10:08:27.494Z,82.40
2018-04-24T10:09:28.063Z,82.78
2018-04-24T10:10:28.633Z,82.68
2018-04-24T10:11:29.194Z,83.26
2018-04-24T10:12:29.758Z,82.97
2018-04-24T10:13:30.349Z,83.20
2018-04-24T10:14:30.900Z,82.24
2018-04-24T10:15:31.467Z,82.15
2018-04-24T10:16:32.040Z,82.06
2018-04-24T10:17:32.616Z,82.24
2018-04-24T10:18:33.189Z,82.06
2018-04-24T10:19:33.766Z,82.34
2018-04-24T10:20:34.330Z,82.15
2018-04-24T10:21:34.885Z,82.53
2018-04-24T10:22:35.444Z,81.86
2018-04-24T10:23:36.013Z,82.06
2018-04-24T10:24:36.576Z,81.67
2018-04-24T10:25:37.143Z,81.43
2018-04-24T10:26:37.718Z,81.04
2018-04-24T10:27:38.285Z,80.66
2018-04-24T10:28:38.856Z,80.08
2018-04-24T10:29:39.423Z,79.89
2018-04-24T10:30:39.982Z,79.26
2018-04-24T10:31:40.552Z,78.78
2018-04-24T10:32:41.123Z,78.88
2018-04-24T10:33:41.689Z,78.30
2018-04-24T10:34:42.255Z,78.59
2018-04-24T10:35:42.819Z,78.05
2018-04-24T10:36:43.382Z,77.61
2018-04-24T10:37:43.947Z,76.84
2018-04-24T10:38:44.519Z,76.07
2018-04-24T10:39:45.075Z,76.07
2018-04-24T10:40:45.646Z,76.12
2018-04-24T10:41:46.219Z,75.67
2018-04-24T10:42:46.784Z,75.29
2018-04-24T10:43:47.366Z,74.46
2018-04-24T10:44:47.915Z,73.08
2018-04-24T10:45:48.489Z,73.31
2018-04-24T10:46:49.054Z,73.94
2018-04-24T10:47:49.625Z,73.85
2018-04-24T10:48:50.188Z,74.13
2018-04-24T10:49:50.754Z,73.85
2018-04-24T10:50:51.324Z,73.27
2018-04-24T10:51:51.982Z,74.04
2018-04-24T10:52:52.460Z,73.94
2018-04-24T10:53:53.032Z,73.88
2018-04-24T10:54:53.608Z,73.21
2018-04-24T10:55:54.272Z,72.83
2018-04-24T10:56:54.795Z,72.54
2018-04-24T10:57:55.362Z,72.89
2018-04-24T10:58:55.933Z,73.31
2018-04-24T10:59:56.509Z,72.99
2018-04-24T11:00:57.082Z,74.23
2018-04-24T11:01:57.641Z,74.62
2018-04-24T11:02:58.218Z,73.37
2018-04-24T11:03:58.783Z,74.01
2018-04-24T11:04:59.348Z,74.77
2018-04-24T11:05:59.919Z,75.45
2018-04-24T11:07:00.493Z,75.25
2018-04-24T11:08:01.272Z,75.00
2018-04-24T11:09:01.854Z,74.33
2018-04-24T11:10:02.426Z,74.13
2018-04-24T11:11:03.006Z,73.94
2018-04-24T11:12:03.580Z,74.23
2018-04-24T11:13:04.155Z,74.01
2018-04-24T11:14:04.936Z,74.87
2018-04-24T11:15:05.515Z,75.45
2018-04-24T11:16:06.082Z,75.54
2018-04-24T11:17:06.684Z,75.54
2018-04-24T11:18:07.223Z,75.45
2018-04-24T11:19:07.801Z,75.20
2018-04-24T11:20:08.380Z,75.15
2018-04-24T11:21:08.960Z,75.35
2018-04-24T11:22:09.540Z,76.40
2018-04-24T11:23:10.117Z,75.73
2018-04-24T11:24:10.679Z,75.35
2018-04-24T11:25:11.263Z,75.73
2018-04-24T11:26:11.843Z,75.54
2018-04-24T11:27:12.419Z,75.45
2018-04-24T11:28:12.997Z,75.54
2018-04-24T11:29:13.554Z,75.45
2018-04-24T11:30:14.157Z,75.35
2018-04-24T11:31:14.702Z,75.63
2018-04-24T11:32:15.278Z,75.63
2018-04-24T11:33:15.861Z,75.54
2018-04-24T11:34:16.474Z,76.21
2018-04-24T11:35:17.013Z,75.48
2018-04-24T11:36:17.575Z,75.35
2018-04-24T11:37:18.151Z,75.63
2018-04-24T11:38:18.716Z,75.92
2018-04-24T11:39:19.290Z,76.21
2018-04-24T11:40:19.872Z,76.40
2018-04-24T11:41:20.532Z,76.88
2018-04-24T11:42:21.025Z,77.46
2018-04-24T11:43:21.595Z,77.75
2018-04-24T11:44:22.189Z,78.19
2018-04-24T11:45:22.751Z,78.23
2018-04-24T11:46:23.318Z,77.46
2018-04-24T11:47:23.892Z,76.69
2018-04-24T11:48:24.462Z,77.17
2018-04-24T11:49:25.019Z,77.04
2018-04-24T11:50:25.585Z,77.13
2018-04-24T11:51:26.377Z,76.88
2018-04-24T11:52:26.952Z,76.65
2018-04-24T11:53:27.514Z,76.88
2018-04-24T11:54:28.082Z,77.01
2018-04-24T11:55:28.652Z,75.96
2018-04-24T11:56:29.224Z,75.67
2018-04-24T11:57:29.781Z,75.29
2018-04-24T11:58:30.355Z,75.42
2018-04-24T11:59:30.918Z,75.10
2018-04-24T12:00:31.501Z,75.42
2018-04-24T12:01:32.073Z,76.00
2018-04-24T12:02:32.691Z,75.23
2018-04-24T12:03:33.213Z,75.42
2018-04-24T12:04:33.796Z,75.07
2018-04-24T12:05:34.360Z,73.63
2018-04-24T12:06:34.937Z,72.96
2018-04-24T12:07:35.500Z,72.48
2018-04-24T12:08:36.069Z,73.15
2018-04-24T12:09:36.646Z,73.06
2018-04-24T12:10:37.213Z,72.80
2018-04-24T12:11:37.791Z,71.65
2018-04-24T12:12:38.373Z,71.75
2018-04-24T12:13:38.947Z,71.36
2018-04-24T12:14:39.641Z,71.33
2018-04-24T12:15:40.222Z,71.81
2018-04-24T12:16:40.997Z,71.19
2018-04-24T12:17:41.576Z,71.48
2018-04-24T12:18:42.153Z,72.06
2018-04-24T12:19:42.725Z,72.34
2018-04-24T12:20:43.296Z,71.67
2018-04-24T12:21:43.889Z,71.42
2018-04-24T12:22:44.450Z,71.91
2018-04-24T12:23:45.230Z,72.03
2018-04-24T12:24:45.797Z,72.13
2018-04-24T12:25:46.360Z,71.46
2018-04-24T12:26:46.955Z,70.59
2018-04-24T12:27:47.553Z,70.43
2018-04-24T12:28:48.334Z,69.57
2018-04-24T12:29:48.925Z,69.99
2018-04-24T12:30:49.512Z,69.22
2018-04-24T12:31:50.104Z,69.12
2018-04-24T12:32:50.679Z,68.54
2018-04-24T12:33:51.264Z,69.31
2018-04-24T12:34:51.828Z,69.28
2018-04-24T12:35:52.400Z,69.38
2018-04-24T12:36:52.985Z,69.38
2018-04-24T12:37:53.568Z,69.06
2018-04-24T12:38:54.242Z,70.43
2018-04-24T12:39:54.939Z,70.53
2018-04-24T12:40:55.523Z,69.28
2018-04-24T12:41:56.108Z,68.90
2018-04-24T12:42:56.691Z,68.03
2018-04-24T12:43:57.259Z,67.45
2018-04-24T12:44:57.845Z,67.93
2018-04-24T12:45:58.433Z,67.39
2018-04-24T12:46:59.018Z,67.74
2018-04-24T12:47:59.605Z,68.16
2018-04-24T12:49:00.188Z,67.58
2018-04-24T12:50:00.975Z,67.87
2018-04-24T12:51:01.560Z,67.33
2018-04-24T12:52:02.143Z,67.61
2018-04-24T12:53:02.713Z,66.78
2018-04-24T12:54:03.299Z,66.46
2018-04-24T12:55:03.871Z,66.39
2018-04-24T12:56:04.448Z,66.39
2018-04-24T12:57:05.225Z,65.43
2018-04-24T12:58:05.786Z,66.39
2018-04-24T12:59:06.372Z,65.72
2018-04-24T13:00:06.919Z,66.49